createdAt,value
2022-08-05T00:01:27.773Z,73.47
2022-08-05T00:03:54.760Z,73.96
2022-08-05T00:06:32.449Z,73.80
2022-08-05T00:09:02.927Z,73.58
2022-08-05T00:11:30.540Z,73.55
2022-08-05T00:14:11.990Z,74.06
2022-08-05T00:16:53.441Z,73.84
2022-08-05T00:19:22.647Z,74.35
2022-08-05T00:21:49.846Z,74.04
2022-08-05T00:24:19.134Z,74.32
2022-08-05T00:26:53.136Z,74.38
2022-08-05T00:29:22.675Z,73.58
2022-08-05T00:32:13.456Z,73.44
2022-08-05T00:34:54.425Z,73.41
2022-08-05T00:37:27.216Z,73.05
2022-08-05T00:40:13.422Z,73.48
2022-08-05T00:42:44.171Z,73.27
2022-08-05T00:45:15.709Z,73.62
2022-08-05T00:47:56.220Z,74.48
2022-08-05T00:50:25.332Z,74.38
2022-08-05T00:52:53.321Z,74.98
2022-08-05T00:55:21.374Z,75.20
2022-08-05T00:57:55.358Z,75.98
2022-08-05T01:00:26.056Z,75.59
2022-08-05T01:02:52.758Z,74.54
2022-08-05T01:05:19.670Z,75.03
2022-08-05T01:08:30.705Z,74.93
2022-08-05T01:10:40.500Z,75.34
2022-08-05T01:13:58.765Z,75.51
2022-08-05T01:16:27.063Z,74.86
2022-08-05T01:18:59.328Z,74.91
2022-08-05T01:21:50.616Z,74.85
2022-08-05T01:24:46.566Z,74.97
2022-08-05T01:27:28.990Z,74.72
2022-08-05T01:30:03.940Z,75.80
2022-08-05T01:32:33.853Z,76.25
2022-08-05T01:35:10.780Z,76.37
2022-08-05T01:37:45.115Z,76.36
2022-08-05T01:40:13.555Z,76.38
2022-08-05T01:42:45.864Z,75.86
2022-08-05T01:45:16.476Z,76.09
2022-08-05T01:47:45.906Z,76.77
2022-08-05T01:50:28.698Z,76.89
2022-08-05T01:53:00.484Z,76.63
2022-08-05T01:55:30.782Z,76.39
2022-08-05T01:58:09.772Z,77.10
2022-08-05T02:00:50.191Z,77.61
2022-08-05T02:03:34.196Z,77.61
2022-08-05T02:06:33.317Z,77.68
2022-08-05T02:08:58.267Z,78.05
2022-08-05T02:11:33.575Z,78.22
2022-08-05T02:14:17.050Z,78.93
2022-08-05T02:16:53.421Z,78.45
2022-08-05T02:19:47.015Z,78.93
2022-08-05T02:22:25.490Z,80.23
2022-08-05T02:25:00.069Z,79.43
2022-08-05T02:27:29.931Z,79.15
2022-08-05T02:30:16.491Z,79.52
2022-08-05T02:32:48.067Z,80.45
2022-08-05T02:35:28.345Z,80.91
2022-08-05T02:38:02.528Z,79.95
2022-08-05T02:40:31.238Z,82.09
2022-08-05T02:43:00.429Z,83.86
2022-08-05T02:45:28.720Z,85.10
2022-08-05T02:48:16.654Z,85.79
2022-08-05T02:50:47.324Z,87.17
2022-08-05T02:53:18.738Z,88.89
2022-08-05T02:55:53.700Z,89.83
2022-08-05T02:58:26.628Z,90.62
2022-08-05T03:00:55.974Z,90.60
2022-08-05T03:03:23.562Z,90.99
2022-08-05T03:06:57.252Z,91.44
2022-08-05T03:08:42.702Z,92.14
2022-08-05T03:11:54.738Z,92.59
2022-08-05T03:14:07.875Z,92.84
2022-08-05T03:16:35.832Z,93.30
2022-08-05T03:19:04.293Z,92.93
2022-08-05T03:21:41.511Z,93.05
2022-08-05T03:24:29.550Z,93.09
2022-08-05T03:26:57.197Z,93.31
2022-08-05T03:29:23.969Z,93.49
2022-08-05T03:31:56.839Z,93.35
2022-08-05T03:34:28.767Z,93.38
2022-08-05T03:36:55.292Z,93.42
2022-08-05T03:39:27.010Z,92.66
2022-08-05T03:41:56.307Z,92.69
2022-08-05T03:44:23.479Z,92.22
2022-08-05T03:46:49.956Z,92.04
2022-08-05T03:49:16.484Z,91.80
2022-08-05T03:52:49.507Z,92.24
2022-08-05T03:55:00.425Z,92.33
2022-08-05T03:57:45.807Z,92.93
2022-08-05T04:00:16.153Z,92.84
2022-08-05T04:02:58.696Z,93.24
2022-08-05T04:05:34.711Z,93.35
2022-08-05T04:08:14.690Z,93.14
2022-08-05T04:10:53.630Z,93.15
2022-08-05T04:13:21.755Z,92.95
2022-08-05T04:16:02.936Z,92.46
2022-08-05T04:18:32.075Z,92.00
2022-08-05T04:20:58.696Z,91.74
2022-08-05T04:24:05.368Z,91.19
2022-08-05T04:26:15.275Z,90.96
2022-08-05T04:28:51.028Z,90.85
2022-08-05T04:31:18.856Z,90.96
2022-08-05T04:34:18.639Z,90.66
2022-08-05T04:36:45.768Z,90.75
2022-08-05T04:39:20.158Z,91.38
2022-08-05T04:41:48.003Z,91.25
2022-08-05T04:44:14.885Z,91.33
2022-08-05T04:46:47.536Z,91.40
2022-08-05T04:49:15.229Z,91.52
2022-08-05T04:51:43.889Z,91.07
2022-08-05T04:54:10.620Z,91.09
2022-08-05T04:56:38.885Z,91.15
2022-08-05T04:59:21.824Z,91.03
2022-08-05T05:02:35.372Z,91.18
2022-08-05T05:04:47.882Z,91.44
2022-08-05T05:07:17.485Z,91.66
2022-08-05T05:09:45.613Z,91.17
2022-08-05T05:12:12.224Z,91.39
2022-08-05T05:14:38.673Z,91.03
2022-08-05T05:17:17.742Z,90.64
2022-08-05T05:19:50.176Z,89.69
2022-08-05T05:22:24.338Z,89.76
2022-08-05T05:24:57.109Z,89.41
2022-08-05T05:27:25.229Z,89.18
2022-08-05T05:30:29.077Z,88.58
2022-08-05T05:32:56.076Z,88.01
2022-08-05T05:35:22.976Z,88.17
2022-08-05T05:38:00.305Z,87.94
2022-08-05T05:40:29.981Z,87.96
2022-08-05T05:42:58.557Z,87.49
2022-08-05T05:45:25.409Z,87.20
2022-08-05T05:48:05.354Z,87.46
2022-08-05T05:50:41.084Z,87.49
2022-08-05T05:53:21.059Z,87.52
2022-08-05T05:55:51.655Z,86.71
2022-08-05T05:58:31.926Z,87.00
2022-08-05T06:01:04.926Z,86.89
2022-08-05T06:04:01.052Z,87.05
2022-08-05T06:06:31.075Z,87.15
2022-08-05T06:09:00.159Z,87.01
2022-08-05T06:11:26.590Z,85.60
2022-08-05T06:13:55.710Z,85.76
2022-08-05T06:16:29.756Z,85.66
2022-08-05T06:19:00.015Z,85.09
2022-08-05T06:21:35.677Z,85.61
2022-08-05T06:24:04.552Z,86.78
2022-08-05T06:26:33.973Z,87.52
2022-08-05T06:29:03.659Z,87.67
2022-08-05T06:31:47.549Z,88.09
2022-08-05T06:34:17.158Z,88.58
2022-08-05T06:36:57.851Z,88.85
2022-08-05T06:39:27.594Z,89.28
2022-08-05T06:41:56.552Z,88.35
2022-08-05T06:44:25.198Z,87.93
2022-08-05T06:46:52.625Z,88.08
2022-08-05T06:49:50.544Z,88.51
2022-08-05T06:52:07.529Z,88.66
2022-08-05T06:54:54.211Z,88.83
2022-08-05T06:58:03.713Z,87.72
2022-08-05T07:00:07.867Z,87.20
2022-08-05T07:02:46.706Z,86.70
2022-08-05T07:05:18.766Z,86.09
2022-08-05T07:07:48.830Z,86.14
2022-08-05T07:10:16.461Z,85.57
2022-08-05T07:13:02.319Z,85.67
2022-08-05T07:16:01.307Z,85.62
2022-08-05T07:18:31.707Z,85.56
2022-08-05T07:20:58.461Z,85.91
2022-08-05T07:23:31.376Z,86.27
2022-08-05T07:25:57.792Z,86.22
2022-08-05T07:28:25.181Z,86.44
2022-08-05T07:30:52.953Z,85.89
2022-08-05T07:33:36.718Z,85.36
2022-08-05T07:36:20.397Z,84.85
2022-08-05T07:38:49.052Z,85.48
2022-08-05T07:42:13.354Z,85.06
2022-08-05T07:44:14.078Z,85.52
2022-08-05T07:46:48.645Z,86.46
2022-08-05T07:49:16.109Z,86.74
2022-08-05T07:51:53.050Z,87.28
2022-08-05T07:54:30.689Z,87.16
2022-08-05T07:57:01.581Z,88.32
2022-08-05T07:59:41.511Z,88.83
2022-08-05T08:02:16.782Z,88.49
2022-08-05T08:04:45.223Z,88.96
2022-08-05T08:07:12.735Z,88.90
2022-08-05T08:09:39.146Z,88.56
2022-08-05T08:12:17.182Z,89.00
2022-08-05T08:14:52.730Z,88.99
2022-08-05T08:17:21.437Z,89.48
2022-08-05T08:20:23.032Z,90.48
2022-08-05T08:22:35.387Z,90.56
2022-08-05T08:25:02.712Z,90.55
2022-08-05T08:27:40.409Z,90.41
2022-08-05T08:30:30.058Z,90.95
2022-08-05T08:33:02.417Z,90.87
2022-08-05T08:35:34.977Z,90.67
2022-08-05T08:38:08.059Z,90.27
2022-08-05T08:40:36.240Z,90.18
2022-08-05T08:45:16.492Z,90.25
2022-08-05T08:45:53.994Z,89.97
2022-08-05T08:48:41.338Z,90.12
2022-08-05T08:52:02.377Z,89.79
2022-08-05T08:53:54.964Z,89.64
2022-08-05T08:56:22.214Z,89.21
2022-08-05T08:58:48.975Z,89.35
2022-08-05T09:01:18.810Z,89.44
2022-08-05T09:03:54.498Z,89.39
2022-08-05T09:06:29.382Z,89.32
2022-08-05T09:08:59.405Z,88.75
2022-08-05T09:11:50.706Z,89.03
2022-08-05T09:14:56.488Z,88.42
2022-08-05T09:17:03.957Z,89.13
2022-08-05T09:19:36.274Z,87.98
2022-08-05T09:22:22.849Z,87.39
2022-08-05T09:25:00.564Z,87.39
2022-08-05T09:28:04.890Z,87.06
2022-08-05T09:30:23.265Z,85.53
2022-08-05T09:32:51.664Z,84.47
2022-08-05T09:35:26.693Z,84.38
2022-08-05T09:38:16.825Z,84.30
2022-08-05T09:40:52.015Z,84.28
2022-08-05T09:43:40.723Z,84.88
2022-08-05T09:46:27.468Z,84.79
2022-08-05T09:49:07.707Z,84.33
2022-08-05T09:51:42.322Z,83.90
2022-08-05T09:54:09.325Z,84.50
2022-08-05T09:56:38.277Z,84.47
2022-08-05T09:59:11.746Z,84.26
2022-08-05T10:01:46.481Z,84.37
2022-08-05T10:04:16.000Z,84.83
2022-08-05T10:06:59.475Z,85.04
2022-08-05T10:09:28.228Z,85.01
2022-08-05T10:12:18.882Z,84.64
2022-08-05T10:15:13.402Z,83.69
2022-08-05T10:17:47.186Z,83.66
2022-08-05T10:20:23.828Z,83.35
2022-08-05T10:22:52.499Z,83.66
2022-08-05T10:25:19.638Z,83.85
2022-08-05T10:28:13.798Z,84.29
2022-08-05T10:32:46.896Z,83.85
2022-08-05T10:33:25.664Z,83.17
2022-08-05T10:35:59.167Z,82.24
2022-08-05T10:38:29.115Z,81.47
2022-08-05T10:41:12.445Z,79.86
2022-08-05T10:43:47.807Z,78.69
2022-08-05T10:46:17.622Z,77.82
2022-08-05T10:48:56.445Z,77.54
2022-08-05T10:51:29.266Z,77.74
2022-08-05T10:54:01.755Z,76.86
2022-08-05T10:56:44.858Z,76.82
2022-08-05T11:00:02.512Z,75.44
2022-08-05T11:02:34.583Z,76.91
2022-08-05T11:05:05.557Z,76.15
2022-08-05T11:07:32.792Z,76.19
2022-08-05T11:10:27.603Z,74.62
2022-08-05T11:12:57.191Z,72.27
2022-08-05T11:16:00.874Z,71.51
2022-08-05T11:18:32.573Z,70.42
2022-08-05T11:21:02.641Z,70.45
2022-08-05T11:23:33.336Z,70.66
2022-08-05T11:26:08.496Z,70.49
2022-08-05T11:28:35.895Z,68.09
2022-08-05T11:31:06.573Z,65.94
2022-08-05T11:33:46.132Z,63.13
2022-08-05T11:36:14.481Z,62.37
2022-08-05T11:38:45.488Z,62.60
2022-08-05T11:41:54.495Z,57.42
2022-08-05T11:44:12.978Z,57.45
2022-08-05T11:47:11.727Z,58.07
2022-08-05T11:49:43.267Z,60.71
2022-08-05T11:52:24.549Z,57.01
2022-08-05T11:54:58.107Z,53.06
2022-08-05T11:57:30.726Z,48.10
2022-08-05T12:00:25.855Z,47.57
2022-08-05T12:02:56.578Z,48.67
2022-08-05T12:05:29.027Z,47.84
2022-08-05T12:08:10.915Z,47.61
2022-08-05T12:10:45.302Z,45.26
2022-08-05T12:13:27.687Z,44.99
2022-08-05T12:16:14.959Z,50.08
2022-08-05T12:18:49.367Z,52.77
2022-08-05T12:21:23.782Z,48.08
2022-08-05T12:24:06.990Z,45.93
2022-08-05T12:26:35.397Z,44.17
2022-08-05T12:29:05.819Z,46.80
2022-08-05T12:31:46.010Z,47.09
2022-08-05T12:34:21.390Z,45.44
2022-08-05T12:36:52.329Z,45.47
2022-08-05T12:39:19.334Z,47.88
2022-08-05T12:41:45.867Z,49.80
2022-08-05T12:44:28.649Z,52.98
2022-08-05T12:47:00.096Z,52.41
2022-08-05T12:50:02.459Z,51.25
2022-08-05T12:52:30.398Z,51.67
2022-08-05T12:55:02.023Z,48.14
2022-08-05T12:58:38.415Z,47.75
2022-08-05T13:02:05.445Z,45.28
2022-08-05T13:03:14.849Z,42.57
2022-08-05T13:05:41.424Z,42.17
2022-08-05T13:08:08.913Z,41.47
2022-08-05T13:10:50.190Z,40.29
2022-08-05T13:14:06.007Z,42.31
2022-08-05T13:16:12.521Z,44.72
2022-08-05T13:18:51.800Z,46.44
2022-08-05T13:21:18.272Z,46.90
2022-08-05T13:23:50.680Z,44.82
2022-08-05T13:26:18.778Z,48.52
2022-08-05T13:28:46.573Z,45.32
2022-08-05T13:31:14.276Z,43.51
2022-08-05T13:34:24.652Z,42.65
2022-08-05T13:36:28.809Z,43.66
2022-08-05T13:38:55.786Z,41.55
2022-08-05T13:41:23.922Z,41.34
2022-08-05T13:44:03.276Z,42.92
2022-08-05T13:46:50.880Z,45.10
2022-08-05T13:49:17.602Z,45.67
2022-08-05T13:51:46.067Z,45.06
2022-08-05T13:54:15.485Z,46.60
2022-08-05T13:56:50.416Z,46.82
2022-08-05T13:59:24.626Z,46.66
2022-08-05T14:01:58.261Z,49.22
2022-08-05T14:04:53.208Z,50.11
2022-08-05T14:07:25.605Z,51.36
2022-08-05T14:10:19.013Z,52.70
2022-08-05T14:12:56.038Z,52.84
2022-08-05T14:16:05.218Z,52.75
2022-08-05T14:18:15.117Z,54.65
2022-08-05T14:20:47.329Z,57.82
2022-08-05T14:23:23.951Z,59.60
2022-08-05T14:25:54.528Z,59.57
2022-08-05T14:28:27.059Z,59.27
2022-08-05T14:30:54.698Z,58.23
2022-08-05T14:33:22.989Z,57.76
2022-08-05T14:35:51.715Z,56.36
2022-08-05T14:38:27.851Z,56.04
2022-08-05T14:41:06.673Z,55.45
2022-08-05T14:44:02.298Z,54.36
2022-08-05T14:46:27.993Z,50.71
2022-08-05T14:48:55.708Z,48.49
2022-08-05T14:51:22.113Z,46.70
2022-08-05T14:54:26.596Z,44.79
2022-08-05T14:56:37.965Z,41.53
2022-08-05T14:59:11.408Z,43.37
2022-08-05T15:01:49.164Z,43.41
2022-08-05T15:04:17.575Z,45.20
2022-08-05T15:06:49.414Z,47.99
2022-08-05T15:09:52.342Z,48.75
2022-08-05T15:12:09.065Z,49.71
2022-08-05T15:14:48.219Z,49.77
2022-08-05T15:17:47.637Z,49.21
2022-08-05T15:20:18.518Z,48.91
2022-08-05T15:22:46.819Z,49.54
2022-08-05T15:25:23.415Z,48.02
2022-08-05T15:28:08.295Z,48.15
2022-08-05T15:30:40.064Z,48.85
2022-08-05T15:33:06.934Z,48.47
2022-08-05T15:35:36.278Z,48.73
2022-08-05T15:38:35.933Z,48.30
2022-08-05T15:41:20.208Z,49.31
2022-08-05T15:43:45.828Z,50.26
2022-08-05T15:46:13.771Z,49.13
2022-08-05T15:48:40.807Z,49.94
2022-08-05T15:51:22.566Z,49.35
2022-08-05T15:54:09.067Z,50.30
2022-08-05T15:56:41.511Z,49.06
2022-08-05T15:59:07.937Z,48.46
2022-08-05T16:01:39.644Z,48.59
2022-08-05T16:04:08.665Z,49.21
2022-08-05T16:06:36.987Z,49.13
2022-08-05T16:09:04.215Z,48.94
2022-08-05T16:11:42.601Z,49.13
2022-08-05T16:14:09.759Z,49.15
2022-08-05T16:16:36.335Z,49.67
2022-08-05T16:19:03.667Z,49.94
2022-08-05T16:22:57.470Z,48.85
2022-08-05T16:25:33.815Z,49.29
2022-08-05T16:28:05.946Z,49.20
2022-08-05T16:30:34.255Z,48.77
2022-08-05T16:33:03.218Z,47.88
2022-08-05T16:35:34.566Z,47.62
2022-08-05T16:38:23.778Z,47.12
2022-08-05T16:41:00.103Z,46.86
2022-08-05T16:43:31.986Z,46.83
2022-08-05T16:46:05.897Z,46.86
2022-08-05T16:48:36.401Z,46.82
2022-08-05T16:51:08.793Z,46.97
2022-08-05T16:54:04.274Z,46.86
2022-08-05T16:56:24.831Z,46.10
2022-08-05T16:58:51.796Z,45.81
2022-08-05T17:01:19.069Z,45.30
2022-08-05T17:03:46.106Z,43.23
2022-08-05T17:06:13.274Z,42.79
2022-08-05T17:08:53.229Z,43.22
2022-08-05T17:11:25.311Z,43.13
2022-08-05T17:14:00.255Z,42.80
2022-08-05T17:16:36.167Z,42.18
2022-08-05T17:19:07.445Z,42.23
2022-08-05T17:21:37.034Z,42.44
2022-08-05T17:24:18.621Z,41.50
2022-08-05T17:26:57.850Z,41.90
2022-08-05T17:29:33.840Z,41.35
2022-08-05T17:32:17.142Z,41.51
2022-08-05T17:34:53.093Z,40.91
2022-08-05T17:37:39.800Z,40.97
2022-08-05T17:40:10.192Z,40.62
2022-08-05T17:42:41.465Z,40.62
2022-08-05T17:45:20.379Z,39.75
2022-08-05T17:47:53.974Z,39.31
2022-08-05T17:50:28.061Z,39.49
2022-08-05T17:52:55.927Z,39.36
2022-08-05T17:55:34.102Z,39.86
2022-08-05T17:58:05.594Z,39.24
2022-08-05T18:00:34.455Z,39.01
2022-08-05T18:03:02.037Z,38.49
2022-08-05T18:05:28.614Z,38.57
2022-08-05T18:08:02.226Z,39.66
2022-08-05T18:10:32.180Z,39.87
2022-08-05T18:13:00.604Z,39.65
2022-08-05T18:15:31.201Z,39.64
2022-08-05T18:18:05.746Z,40.08
2022-08-05T18:20:37.773Z,39.99
2022-08-05T18:23:09.092Z,40.75
2022-08-05T18:25:38.921Z,40.73
2022-08-05T18:28:06.554Z,40.76
2022-08-05T18:30:33.887Z,41.17
2022-08-05T18:33:01.488Z,41.73
2022-08-05T18:35:59.804Z,42.30
2022-08-05T18:38:19.473Z,42.35
2022-08-05T18:41:59.354Z,43.26
2022-08-05T18:43:42.949Z,43.25
2022-08-05T18:46:15.063Z,44.28
2022-08-05T18:48:42.136Z,44.56
2022-08-05T18:52:05.611Z,44.73
2022-08-05T18:54:14.697Z,45.43
2022-08-05T18:56:41.958Z,45.34
2022-08-05T18:59:43.708Z,45.86
2022-08-05T19:02:04.713Z,45.57
2022-08-05T19:05:01.176Z,45.85
2022-08-05T19:07:25.023Z,46.11
2022-08-05T19:09:57.037Z,45.97
2022-08-05T19:12:24.259Z,45.97
2022-08-05T19:15:00.799Z,46.75
2022-08-05T19:17:59.385Z,47.05
2022-08-05T19:20:16.206Z,47.42
2022-08-05T19:22:44.120Z,47.79
2022-08-05T19:25:21.604Z,48.17
2022-08-05T19:27:56.326Z,48.53
2022-08-05T19:30:22.843Z,48.91
2022-08-05T19:32:50.355Z,48.85
2022-08-05T19:35:16.838Z,48.95
2022-08-05T19:38:06.055Z,49.77
2022-08-05T19:40:34.591Z,49.63
2022-08-05T19:43:05.541Z,49.29
2022-08-05T19:45:36.997Z,49.60
2022-08-05T19:48:04.571Z,49.62
2022-08-05T19:50:32.218Z,50.28
2022-08-05T19:53:09.444Z,50.62
2022-08-05T19:56:14.276Z,50.36
2022-08-05T19:58:29.309Z,50.79
2022-08-05T20:00:56.281Z,50.84
2022-08-05T20:03:22.941Z,51.32
2022-08-05T20:05:56.435Z,51.56
2022-08-05T20:08:24.470Z,51.97
2022-08-05T20:10:51.679Z,51.94
2022-08-05T20:13:29.998Z,51.95
2022-08-05T20:15:57.719Z,51.84
2022-08-05T20:18:35.974Z,51.92
2022-08-05T20:21:05.349Z,51.66
2022-08-05T20:23:40.526Z,52.13
2022-08-05T20:26:24.593Z,52.68
2022-08-05T20:28:55.704Z,53.11
2022-08-05T20:31:36.735Z,53.06
2022-08-05T20:34:03.758Z,53.47
2022-08-05T20:36:31.035Z,53.10
2022-08-05T20:38:59.350Z,53.29
2022-08-05T20:41:43.160Z,54.05
2022-08-05T20:44:17.435Z,53.79
2022-08-05T20:46:46.494Z,54.34
2022-08-05T20:49:14.101Z,54.21
2022-08-05T20:51:40.758Z,54.37
2022-08-05T20:54:14.135Z,54.36
2022-08-05T20:56:42.424Z,54.36
2022-08-05T20:59:14.111Z,54.42
2022-08-05T21:01:53.687Z,54.70
2022-08-05T21:04:26.668Z,54.83
2022-08-05T21:06:54.135Z,55.44
2022-08-05T21:09:20.647Z,55.94
2022-08-05T21:12:09.533Z,55.85
2022-08-05T21:14:35.136Z,56.20
2022-08-05T21:17:05.344Z,56.47
2022-08-05T21:19:46.864Z,56.62
2022-08-05T21:22:18.679Z,56.88
2022-08-05T21:24:52.008Z,57.07
2022-08-05T21:27:20.439Z,57.14
2022-08-05T21:29:51.172Z,57.35
2022-08-05T21:32:19.997Z,57.42
2022-08-05T21:35:08.958Z,57.98
2022-08-05T21:37:33.427Z,58.31
2022-08-05T21:40:05.709Z,58.37
2022-08-05T21:42:44.432Z,58.31
2022-08-05T21:45:24.233Z,58.80
2022-08-05T21:47:56.846Z,58.67
2022-08-05T21:50:25.899Z,59.41
2022-08-05T21:52:52.845Z,59.88
2022-08-05T21:56:00.865Z,59.86
2022-08-05T21:58:06.769Z,60.14
2022-08-05T22:00:37.080Z,60.29
2022-08-05T22:03:03.762Z,59.80
2022-08-05T22:05:30.293Z,60.08
2022-08-05T22:08:22.438Z,59.86
2022-08-05T22:10:51.102Z,60.02
2022-08-05T22:14:34.342Z,60.31
2022-08-05T22:16:20.359Z,60.37
2022-08-05T22:18:51.830Z,61.15
2022-08-05T22:21:19.547Z,61.28
2022-08-05T22:24:09.090Z,61.83
2022-08-05T22:26:58.978Z,61.58
2022-08-05T22:29:30.634Z,61.61
2022-08-05T22:32:03.184Z,61.73
2022-08-05T22:34:30.983Z,62.15
2022-08-05T22:36:58.708Z,62.55
2022-08-05T22:39:33.391Z,62.79
2022-08-05T22:42:11.799Z,62.76
2022-08-05T22:44:39.718Z,63.44
2022-08-05T22:47:06.789Z,63.96
2022-08-05T22:50:18.335Z,63.65
2022-08-05T22:52:30.678Z,63.42
2022-08-05T22:55:00.884Z,63.59
2022-08-05T22:57:27.369Z,64.14
2022-08-05T23:00:05.381Z,64.34
2022-08-05T23:02:34.789Z,63.70
2022-08-05T23:05:07.297Z,63.89
2022-08-05T23:07:44.070Z,64.12
2022-08-05T23:10:12.705Z,64.01
2022-08-05T23:12:39.216Z,64.27
2022-08-05T23:15:08.796Z,64.40
2022-08-05T23:17:59.830Z,64.70
2022-08-05T23:20:24.451Z,64.94
2022-08-05T23:22:54.177Z,64.95
2022-08-05T23:25:53.524Z,64.99
2022-08-05T23:28:10.390Z,64.63
2022-08-05T23:30:40.418Z,65.17
2022-08-05T23:33:16.022Z,65.14
2022-08-05T23:35:48.818Z,64.96
2022-08-05T23:38:16.155Z,65.46
2022-08-05T23:40:49.559Z,65.36
2022-08-05T23:43:24.965Z,64.97
2022-08-05T23:46:03.477Z,65.05
2022-08-05T23:48:29.943Z,65.38
2022-08-05T23:50:56.485Z,65.23
2022-08-05T23:53:28.329Z,65.13
2022-08-05T23:56:11.803Z,65.51
2022-08-05T23:58:38.523Z,65.77
